To NAV CANADA Home Page Login to a new session Search on AWWS site Feedback and Comments Disclaimer Vers la page française équivalente Tips FAQ What's new on the site To the Forecasts and Observations / NOTAM section To "File a Flight Plan" website Publications and other links Update of the User's profile FIC Telephone Numbers My Weather Data Folder Route Weather Data Regional Weather Data Local Weather Data To the Forecasts and Observations / NOTAM section
Request Generated 05/04/2016 at 23:05:04 UTC . Weather information available at that time is displayed.

METAR/TAF

WINNIPEG/JAMES ARMSTRONG RICHARDSON INTL/MB    

METAR CYWG 042300Z 19010G16KT 15SM BKN220 21/M01 A2992 RMK CI7 SLP139
DENSITY ALT 1600FT=
METAR CYWG 042200Z 21008G15KT 170V230 15SM BKN240 21/M01 A2994 RMK
CI7 SLP148 DENSITY ALT 1500FT=
METAR CYWG 042100Z 14005KT 120V200 15SM BKN240 20/M02 A2996 RMK CI7
SLP153 DENSITY ALT 1500FT=

TAF CYWG 041738Z 0418/0518 17006KT P6SM SCT250
BECMG 0421/0423 19012KT
FM050600 20015KT P6SM SKC
BECMG 0510/0512 26015KT
RMK NXT FCST BY 050000Z=
Your time UTC time
Weather data provided by Environment Canada and NAV CANADA